sensor_id;sensor_type;location;lat;lon;timestamp;P1;durP1;ratioP1;P2;durP2;ratioP2
80195;SDS011;69516;42.050;21.516;2023-07-31T00:00:34;9.30;;;5.43;;
80195;SDS011;69516;42.050;21.516;2023-07-31T00:03:00;11.10;;;5.93;;
80195;SDS011;69516;42.050;21.516;2023-07-31T00:05:26;9.55;;;5.22;;
80195;SDS011;69516;42.050;21.516;2023-07-31T00:07:53;10.73;;;5.03;;
80195;SDS011;69516;42.050;21.516;2023-07-31T00:10:19;10.45;;;5.65;;
80195;SDS011;69516;42.050;21.516;2023-07-31T00:12:46;8.23;;;4.93;;
80195;SDS011;69516;42.050;21.516;2023-07-31T00:15:13;8.07;;;5.80;;
80195;SDS011;69516;42.050;21.516;2023-07-31T00:17:39;12.13;;;6.30;;
80195;SDS011;69516;42.050;21.516;2023-07-31T00:20:06;8.70;;;5.70;;
80195;SDS011;69516;42.050;21.516;2023-07-31T00:22:32;13.18;;;6.43;;
80195;SDS011;69516;42.050;21.516;2023-07-31T00:24:58;8.65;;;5.47;;
80195;SDS011;69516;42.050;21.516;2023-07-31T00:27:25;8.70;;;5.72;;
80195;SDS011;69516;42.050;21.516;2023-07-31T00:29:51;8.75;;;6.20;;
80195;SDS011;69516;42.050;21.516;2023-07-31T00:32:17;9.45;;;6.18;;
80195;SDS011;69516;42.050;21.516;2023-07-31T00:34:43;9.95;;;6.35;;
80195;SDS011;69516;42.050;21.516;2023-07-31T00:37:09;8.75;;;6.53;;
80195;SDS011;69516;42.050;21.516;2023-07-31T00:39:35;9.80;;;6.07;;
80195;SDS011;69516;42.050;21.516;2023-07-31T00:42:02;11.05;;;6.10;;
80195;SDS011;69516;42.050;21.516;2023-07-31T00:44:28;9.57;;;5.90;;
80195;SDS011;69516;42.050;21.516;2023-07-31T00:46:54;8.90;;;5.47;;
80195;SDS011;69516;42.050;21.516;2023-07-31T00:49:23;9.20;;;5.68;;
80195;SDS011;69516;42.050;21.516;2023-07-31T00:51:50;9.38;;;6.50;;
80195;SDS011;69516;42.050;21.516;2023-07-31T00:54:16;8.18;;;6.00;;
80195;SDS011;69516;42.050;21.516;2023-07-31T00:56:42;8.52;;;5.88;;
80195;SDS011;69516;42.050;21.516;2023-07-31T01:01:36;8.10;;;5.97;;
80195;SDS011;69516;42.050;21.516;2023-07-31T01:04:02;8.98;;;5.80;;
80195;SDS011;69516;42.050;21.516;2023-07-31T01:11:51;8.88;;;6.45;;
80195;SDS011;69516;42.050;21.516;2023-07-31T01:14:18;9.32;;;5.82;;
80195;SDS011;69516;42.050;21.516;2023-07-31T01:16:44;9.68;;;5.75;;
80195;SDS011;69516;42.050;21.516;2023-07-31T01:19:10;12.13;;;7.15;;
80195;SDS011;69516;42.050;21.516;2023-07-31T01:24:08;9.82;;;6.28;;
80195;SDS011;69516;42.050;21.516;2023-07-31T01:26:39;9.07;;;5.97;;
80195;SDS011;69516;42.050;21.516;2023-07-31T01:29:43;9.70;;;6.10;;
80195;SDS011;69516;42.050;21.516;2023-07-31T01:31:58;8.90;;;5.95;;
80195;SDS011;69516;42.050;21.516;2023-07-31T01:34:27;9.10;;;6.40;;
80195;SDS011;69516;42.050;21.516;2023-07-31T01:36:55;10.48;;;6.47;;
80195;SDS011;69516;42.050;21.516;2023-07-31T01:39:22;9.02;;;6.20;;
80195;SDS011;69516;42.050;21.516;2023-07-31T01:41:48;10.30;;;6.50;;
80195;SDS011;69516;42.050;21.516;2023-07-31T01:44:14;9.10;;;6.65;;
80195;SDS011;69516;42.050;21.516;2023-07-31T01:46:40;8.88;;;6.80;;
80195;SDS011;69516;42.050;21.516;2023-07-31T01:49:06;10.55;;;6.50;;
80195;SDS011;69516;42.050;21.516;2023-07-31T01:51:32;8.75;;;6.50;;
80195;SDS011;69516;42.050;21.516;2023-07-31T01:54:02;10.13;;;7.28;;
80195;SDS011;69516;42.050;21.516;2023-07-31T01:56:28;10.52;;;6.47;;
80195;SDS011;69516;42.050;21.516;2023-07-31T01:58:54;9.00;;;6.32;;
80195;SDS011;69516;42.050;21.516;2023-07-31T02:01:21;8.65;;;6.80;;
80195;SDS011;69516;42.050;21.516;2023-07-31T02:03:47;9.68;;;6.35;;
80195;SDS011;69516;42.050;21.516;2023-07-31T02:06:13;8.85;;;6.50;;
80195;SDS011;69516;42.050;21.516;2023-07-31T02:08:39;10.93;;;7.53;;
80195;SDS011;69516;42.050;21.516;2023-07-31T02:11:05;11.45;;;7.53;;
80195;SDS011;69516;42.050;21.516;2023-07-31T02:13:32;10.57;;;7.50;;
80195;SDS011;69516;42.050;21.516;2023-07-31T02:15:58;9.15;;;6.82;;
80195;SDS011;69516;42.050;21.516;2023-07-31T02:18:24;10.43;;;8.05;;
80195;SDS011;69516;42.050;21.516;2023-07-31T02:20:50;11.82;;;9.75;;
80195;SDS011;69516;42.050;21.516;2023-07-31T02:23:20;12.45;;;9.90;;
80195;SDS011;69516;42.050;21.516;2023-07-31T02:25:46;13.07;;;10.05;;
80195;SDS011;69516;42.050;21.516;2023-07-31T02:28:12;12.30;;;9.63;;
80195;SDS011;69516;42.050;21.516;2023-07-31T02:30:38;12.40;;;9.73;;
80195;SDS011;69516;42.050;21.516;2023-07-31T02:33:05;15.10;;;11.30;;
80195;SDS011;69516;42.050;21.516;2023-07-31T02:35:31;13.05;;;11.07;;
80195;SDS011;69516;42.050;21.516;2023-07-31T02:37:57;17.70;;;12.50;;
80195;SDS011;69516;42.050;21.516;2023-07-31T02:40:23;14.70;;;11.63;;
80195;SDS011;69516;42.050;21.516;2023-07-31T02:42:49;14.60;;;12.00;;
80195;SDS011;69516;42.050;21.516;2023-07-31T02:45:15;14.35;;;10.40;;
80195;SDS011;69516;42.050;21.516;2023-07-31T02:47:41;15.90;;;10.35;;
80195;SDS011;69516;42.050;21.516;2023-07-31T02:50:07;14.77;;;10.75;;
80195;SDS011;69516;42.050;21.516;2023-07-31T02:52:34;14.23;;;10.80;;
80195;SDS011;69516;42.050;21.516;2023-07-31T02:55:00;14.20;;;10.60;;
80195;SDS011;69516;42.050;21.516;2023-07-31T02:57:26;14.20;;;10.65;;
80195;SDS011;69516;42.050;21.516;2023-07-31T02:59:52;14.85;;;10.48;;
80195;SDS011;69516;42.050;21.516;2023-07-31T03:02:18;14.27;;;11.60;;
80195;SDS011;69516;42.050;21.516;2023-07-31T03:04:44;14.30;;;10.75;;
80195;SDS011;69516;42.050;21.516;2023-07-31T03:07:10;14.43;;;10.43;;
80195;SDS011;69516;42.050;21.516;2023-07-31T03:09:36;17.92;;;11.60;;
80195;SDS011;69516;42.050;21.516;2023-07-31T03:12:03;15.90;;;10.50;;
80195;SDS011;69516;42.050;21.516;2023-07-31T03:14:29;14.27;;;10.20;;
80195;SDS011;69516;42.050;21.516;2023-07-31T03:16:56;15.32;;;11.15;;
80195;SDS011;69516;42.050;21.516;2023-07-31T03:19:22;14.23;;;11.00;;
80195;SDS011;69516;42.050;21.516;2023-07-31T03:21:48;13.45;;;10.60;;
80195;SDS011;69516;42.050;21.516;2023-07-31T03:24:14;14.45;;;11.13;;
80195;SDS011;69516;42.050;21.516;2023-07-31T03:26:40;14.95;;;11.55;;
80195;SDS011;69516;42.050;21.516;2023-07-31T03:29:07;16.83;;;11.65;;
80195;SDS011;69516;42.050;21.516;2023-07-31T03:31:33;15.60;;;11.25;;
80195;SDS011;69516;42.050;21.516;2023-07-31T03:33:59;13.82;;;10.75;;
80195;SDS011;69516;42.050;21.516;2023-07-31T03:36:25;13.40;;;10.60;;
80195;SDS011;69516;42.050;21.516;2023-07-31T03:38:52;14.32;;;11.50;;
80195;SDS011;69516;42.050;21.516;2023-07-31T03:41:18;13.10;;;10.48;;
80195;SDS011;69516;42.050;21.516;2023-07-31T03:43:46;15.10;;;10.93;;
80195;SDS011;69516;42.050;21.516;2023-07-31T03:46:12;12.98;;;10.35;;
80195;SDS011;69516;42.050;21.516;2023-07-31T03:48:38;17.17;;;11.27;;
80195;SDS011;69516;42.050;21.516;2023-07-31T03:51:04;14.30;;;11.50;;
80195;SDS011;69516;42.050;21.516;2023-07-31T03:53:30;15.30;;;11.50;;
80195;SDS011;69516;42.050;21.516;2023-07-31T03:55:56;14.35;;;10.95;;
80195;SDS011;69516;42.050;21.516;2023-07-31T03:58:22;12.75;;;11.05;;
80195;SDS011;69516;42.050;21.516;2023-07-31T04:00:48;13.45;;;10.57;;
80195;SDS011;69516;42.050;21.516;2023-07-31T04:03:15;11.60;;;9.75;;
80195;SDS011;69516;42.050;21.516;2023-07-31T04:05:41;12.25;;;9.63;;
80195;SDS011;69516;42.050;21.516;2023-07-31T04:08:07;14.63;;;10.82;;
80195;SDS011;69516;42.050;21.516;2023-07-31T04:10:33;13.75;;;11.02;;
80195;SDS011;69516;42.050;21.516;2023-07-31T04:12:59;13.55;;;10.48;;
80195;SDS011;69516;42.050;21.516;2023-07-31T04:15:26;13.98;;;9.95;;
80195;SDS011;69516;42.050;21.516;2023-07-31T04:17:52;14.50;;;10.60;;
80195;SDS011;69516;42.050;21.516;2023-07-31T04:20:18;15.18;;;11.13;;
80195;SDS011;69516;42.050;21.516;2023-07-31T04:22:44;13.95;;;11.10;;
80195;SDS011;69516;42.050;21.516;2023-07-31T04:25:10;12.38;;;10.18;;
80195;SDS011;69516;42.050;21.516;2023-07-31T04:27:36;13.13;;;10.38;;
80195;SDS011;69516;42.050;21.516;2023-07-31T04:30:02;13.85;;;10.60;;
80195;SDS011;69516;42.050;21.516;2023-07-31T04:32:28;13.85;;;10.73;;
80195;SDS011;69516;42.050;21.516;2023-07-31T04:34:55;12.20;;;10.00;;
80195;SDS011;69516;42.050;21.516;2023-07-31T04:37:21;14.07;;;10.52;;
80195;SDS011;69516;42.050;21.516;2023-07-31T04:39:47;14.00;;;9.70;;
80195;SDS011;69516;42.050;21.516;2023-07-31T04:42:13;13.57;;;10.13;;
80195;SDS011;69516;42.050;21.516;2023-07-31T04:44:39;13.93;;;9.77;;
80195;SDS011;69516;42.050;21.516;2023-07-31T04:47:05;14.30;;;10.40;;
80195;SDS011;69516;42.050;21.516;2023-07-31T04:49:32;10.73;;;9.20;;
80195;SDS011;69516;42.050;21.516;2023-07-31T04:51:58;12.57;;;9.77;;
80195;SDS011;69516;42.050;21.516;2023-07-31T04:54:24;13.70;;;9.77;;
80195;SDS011;69516;42.050;21.516;2023-07-31T04:56:50;13.88;;;8.88;;
80195;SDS011;69516;42.050;21.516;2023-07-31T04:59:17;11.43;;;8.52;;
80195;SDS011;69516;42.050;21.516;2023-07-31T05:01:43;11.50;;;8.75;;
80195;SDS011;69516;42.050;21.516;2023-07-31T05:04:13;11.23;;;9.27;;
80195;SDS011;69516;42.050;21.516;2023-07-31T05:06:39;11.32;;;9.10;;
80195;SDS011;69516;42.050;21.516;2023-07-31T05:09:05;10.52;;;8.63;;
80195;SDS011;69516;42.050;21.516;2023-07-31T05:11:31;12.43;;;8.98;;
80195;SDS011;69516;42.050;21.516;2023-07-31T05:13:58;11.43;;;8.93;;
80195;SDS011;69516;42.050;21.516;2023-07-31T05:16:24;12.68;;;8.95;;
80195;SDS011;69516;42.050;21.516;2023-07-31T05:18:50;11.02;;;8.88;;
80195;SDS011;69516;42.050;21.516;2023-07-31T05:21:16;12.52;;;9.23;;
80195;SDS011;69516;42.050;21.516;2023-07-31T05:23:42;11.80;;;9.05;;
80195;SDS011;69516;42.050;21.516;2023-07-31T05:26:08;11.52;;;9.00;;
80195;SDS011;69516;42.050;21.516;2023-07-31T05:28:35;12.63;;;9.93;;
80195;SDS011;69516;42.050;21.516;2023-07-31T05:31:04;12.77;;;9.93;;
80195;SDS011;69516;42.050;21.516;2023-07-31T05:33:31;12.05;;;9.80;;
80195;SDS011;69516;42.050;21.516;2023-07-31T05:35:58;13.63;;;10.40;;
80195;SDS011;69516;42.050;21.516;2023-07-31T05:38:24;13.90;;;10.00;;
80195;SDS011;69516;42.050;21.516;2023-07-31T05:40:50;12.75;;;9.25;;
80195;SDS011;69516;42.050;21.516;2023-07-31T05:43:16;11.63;;;9.80;;
80195;SDS011;69516;42.050;21.516;2023-07-31T05:45:42;13.55;;;10.30;;
80195;SDS011;69516;42.050;21.516;2023-07-31T05:48:09;13.57;;;10.32;;
80195;SDS011;69516;42.050;21.516;2023-07-31T05:50:35;14.30;;;9.95;;
80195;SDS011;69516;42.050;21.516;2023-07-31T05:53:04;14.68;;;10.48;;
80195;SDS011;69516;42.050;21.516;2023-07-31T05:55:30;14.57;;;10.30;;
80195;SDS011;69516;42.050;21.516;2023-07-31T05:57:56;13.32;;;10.27;;
80195;SDS011;69516;42.050;21.516;2023-07-31T06:00:22;13.45;;;9.82;;
80195;SDS011;69516;42.050;21.516;2023-07-31T06:02:48;13.63;;;10.20;;
80195;SDS011;69516;42.050;21.516;2023-07-31T06:05:15;12.75;;;10.35;;
80195;SDS011;69516;42.050;21.516;2023-07-31T06:07:41;14.70;;;9.77;;
80195;SDS011;69516;42.050;21.516;2023-07-31T06:10:08;11.80;;;8.95;;
80195;SDS011;69516;42.050;21.516;2023-07-31T06:12:35;13.90;;;9.60;;
80195;SDS011;69516;42.050;21.516;2023-07-31T06:15:04;13.70;;;8.90;;
80195;SDS011;69516;42.050;21.516;2023-07-31T06:17:30;15.45;;;9.50;;
80195;SDS011;69516;42.050;21.516;2023-07-31T06:19:57;13.48;;;8.77;;
80195;SDS011;69516;42.050;21.516;2023-07-31T06:22:23;11.93;;;9.02;;
80195;SDS011;69516;42.050;21.516;2023-07-31T06:24:49;10.18;;;8.35;;
80195;SDS011;69516;42.050;21.516;2023-07-31T06:27:15;12.07;;;7.32;;
80195;SDS011;69516;42.050;21.516;2023-07-31T06:29:42;10.38;;;7.85;;
80195;SDS011;69516;42.050;21.516;2023-07-31T06:32:08;9.43;;;7.72;;
80195;SDS011;69516;42.050;21.516;2023-07-31T06:34:34;12.65;;;7.90;;
80195;SDS011;69516;42.050;21.516;2023-07-31T06:37:00;10.18;;;7.25;;
80195;SDS011;69516;42.050;21.516;2023-07-31T06:39:26;11.50;;;6.47;;
80195;SDS011;69516;42.050;21.516;2023-07-31T06:41:52;10.05;;;6.00;;
80195;SDS011;69516;42.050;21.516;2023-07-31T06:44:18;8.35;;;5.95;;
80195;SDS011;69516;42.050;21.516;2023-07-31T06:46:45;8.57;;;6.28;;
80195;SDS011;69516;42.050;21.516;2023-07-31T06:49:11;8.90;;;6.43;;
80195;SDS011;69516;42.050;21.516;2023-07-31T06:51:37;8.48;;;6.40;;
80195;SDS011;69516;42.050;21.516;2023-07-31T06:54:03;7.93;;;5.75;;
80195;SDS011;69516;42.050;21.516;2023-07-31T06:56:29;15.80;;;9.85;;
80195;SDS011;69516;42.050;21.516;2023-07-31T06:58:56;15.27;;;9.70;;
80195;SDS011;69516;42.050;21.516;2023-07-31T07:01:22;6.93;;;4.90;;
80195;SDS011;69516;42.050;21.516;2023-07-31T07:03:48;7.45;;;5.68;;
80195;SDS011;69516;42.050;21.516;2023-07-31T07:06:18;9.95;;;7.35;;
80195;SDS011;69516;42.050;21.516;2023-07-31T07:08:44;7.38;;;5.10;;
80195;SDS011;69516;42.050;21.516;2023-07-31T07:11:11;6.28;;;4.85;;
80195;SDS011;69516;42.050;21.516;2023-07-31T07:13:37;6.63;;;4.35;;
80195;SDS011;69516;42.050;21.516;2023-07-31T07:16:03;5.57;;;3.97;;
80195;SDS011;69516;42.050;21.516;2023-07-31T07:18:29;9.50;;;5.10;;
80195;SDS011;69516;42.050;21.516;2023-07-31T07:20:56;6.60;;;4.40;;
80195;SDS011;69516;42.050;21.516;2023-07-31T07:23:23;6.85;;;4.00;;
80195;SDS011;69516;42.050;21.516;2023-07-31T07:25:49;5.78;;;4.28;;
80195;SDS011;69516;42.050;21.516;2023-07-31T07:28:16;6.47;;;5.00;;
80195;SDS011;69516;42.050;21.516;2023-07-31T07:30:44;8.63;;;5.20;;
80195;SDS011;69516;42.050;21.516;2023-07-31T07:33:10;8.07;;;5.32;;
80195;SDS011;69516;42.050;21.516;2023-07-31T07:35:37;11.23;;;9.50;;
80195;SDS011;69516;42.050;21.516;2023-07-31T07:38:03;9.95;;;7.57;;
80195;SDS011;69516;42.050;21.516;2023-07-31T07:40:29;7.68;;;5.85;;
80195;SDS011;69516;42.050;21.516;2023-07-31T07:42:55;7.18;;;5.00;;
80195;SDS011;69516;42.050;21.516;2023-07-31T07:45:22;7.55;;;4.93;;
80195;SDS011;69516;42.050;21.516;2023-07-31T07:47:48;7.00;;;5.10;;
80195;SDS011;69516;42.050;21.516;2023-07-31T07:50:14;7.07;;;5.28;;
80195;SDS011;69516;42.050;21.516;2023-07-31T07:52:40;7.45;;;4.75;;
80195;SDS011;69516;42.050;21.516;2023-07-31T07:55:06;6.65;;;4.10;;
80195;SDS011;69516;42.050;21.516;2023-07-31T07:57:32;6.60;;;3.97;;
80195;SDS011;69516;42.050;21.516;2023-07-31T07:59:58;6.90;;;4.60;;
80195;SDS011;69516;42.050;21.516;2023-07-31T08:02:25;5.72;;;4.13;;
80195;SDS011;69516;42.050;21.516;2023-07-31T08:04:52;4.70;;;3.05;;
80195;SDS011;69516;42.050;21.516;2023-07-31T08:07:18;5.15;;;3.05;;
80195;SDS011;69516;42.050;21.516;2023-07-31T08:09:44;6.10;;;3.72;;
80195;SDS011;69516;42.050;21.516;2023-07-31T08:12:10;6.93;;;3.65;;
80195;SDS011;69516;42.050;21.516;2023-07-31T08:14:36;5.13;;;3.38;;
80195;SDS011;69516;42.050;21.516;2023-07-31T08:17:02;5.35;;;3.50;;
80195;SDS011;69516;42.050;21.516;2023-07-31T08:19:29;5.10;;;3.47;;
80195;SDS011;69516;42.050;21.516;2023-07-31T08:21:55;5.32;;;3.40;;
80195;SDS011;69516;42.050;21.516;2023-07-31T08:24:21;7.13;;;4.95;;
80195;SDS011;69516;42.050;21.516;2023-07-31T08:26:47;5.60;;;3.58;;
80195;SDS011;69516;42.050;21.516;2023-07-31T08:29:13;6.45;;;3.80;;
80195;SDS011;69516;42.050;21.516;2023-07-31T08:31:39;5.78;;;3.92;;
80195;SDS011;69516;42.050;21.516;2023-07-31T08:34:06;5.45;;;3.75;;
80195;SDS011;69516;42.050;21.516;2023-07-31T08:36:32;6.10;;;4.55;;
80195;SDS011;69516;42.050;21.516;2023-07-31T08:38:58;5.30;;;3.78;;
80195;SDS011;69516;42.050;21.516;2023-07-31T08:41:24;6.00;;;4.18;;
80195;SDS011;69516;42.050;21.516;2023-07-31T08:43:51;5.82;;;3.88;;
80195;SDS011;69516;42.050;21.516;2023-07-31T08:46:17;6.13;;;4.13;;
80195;SDS011;69516;42.050;21.516;2023-07-31T08:48:44;6.30;;;3.72;;
80195;SDS011;69516;42.050;21.516;2023-07-31T08:51:13;6.68;;;4.00;;
80195;SDS011;69516;42.050;21.516;2023-07-31T08:53:40;5.80;;;3.47;;
80195;SDS011;69516;42.050;21.516;2023-07-31T08:56:06;5.10;;;3.60;;
80195;SDS011;69516;42.050;21.516;2023-07-31T08:58:32;5.78;;;3.50;;
80195;SDS011;69516;42.050;21.516;2023-07-31T09:01:01;12.38;;;4.40;;
80195;SDS011;69516;42.050;21.516;2023-07-31T09:03:29;5.95;;;3.58;;
80195;SDS011;69516;42.050;21.516;2023-07-31T09:05:58;6.65;;;3.70;;
80195;SDS011;69516;42.050;21.516;2023-07-31T09:08:24;10.45;;;4.15;;
80195;SDS011;69516;42.050;21.516;2023-07-31T09:10:52;6.50;;;4.10;;
80195;SDS011;69516;42.050;21.516;2023-07-31T09:13:19;6.18;;;3.75;;
80195;SDS011;69516;42.050;21.516;2023-07-31T09:15:46;7.47;;;4.35;;
80195;SDS011;69516;42.050;21.516;2023-07-31T09:18:12;5.30;;;3.42;;
80195;SDS011;69516;42.050;21.516;2023-07-31T09:20:44;14.15;;;10.85;;
80195;SDS011;69516;42.050;21.516;2023-07-31T09:23:11;5.88;;;4.07;;
80195;SDS011;69516;42.050;21.516;2023-07-31T09:25:38;5.32;;;3.42;;
80195;SDS011;69516;42.050;21.516;2023-07-31T09:28:06;5.20;;;3.15;;
80195;SDS011;69516;42.050;21.516;2023-07-31T09:30:43;5.63;;;3.53;;
80195;SDS011;69516;42.050;21.516;2023-07-31T09:33:09;6.07;;;3.30;;
80195;SDS011;69516;42.050;21.516;2023-07-31T09:35:36;5.07;;;3.28;;
80195;SDS011;69516;42.050;21.516;2023-07-31T09:38:12;5.00;;;3.00;;
80195;SDS011;69516;42.050;21.516;2023-07-31T09:40:40;4.93;;;3.05;;
80195;SDS011;69516;42.050;21.516;2023-07-31T09:43:07;5.53;;;3.60;;
80195;SDS011;69516;42.050;21.516;2023-07-31T09:45:35;5.03;;;3.30;;
80195;SDS011;69516;42.050;21.516;2023-07-31T09:48:02;5.40;;;3.05;;
80195;SDS011;69516;42.050;21.516;2023-07-31T09:50:29;5.40;;;2.92;;
80195;SDS011;69516;42.050;21.516;2023-07-31T09:52:56;5.40;;;2.92;;
80195;SDS011;69516;42.050;21.516;2023-07-31T09:55:22;5.60;;;3.35;;
80195;SDS011;69516;42.050;21.516;2023-07-31T09:57:48;5.30;;;3.00;;
80195;SDS011;69516;42.050;21.516;2023-07-31T10:00:15;6.85;;;3.17;;
80195;SDS011;69516;42.050;21.516;2023-07-31T10:02:44;5.97;;;2.90;;
80195;SDS011;69516;42.050;21.516;2023-07-31T10:05:10;4.93;;;2.60;;
80195;SDS011;69516;42.050;21.516;2023-07-31T10:07:38;4.50;;;2.67;;
80195;SDS011;69516;42.050;21.516;2023-07-31T10:10:06;5.53;;;2.92;;
80195;SDS011;69516;42.050;21.516;2023-07-31T10:12:33;4.15;;;2.13;;
80195;SDS011;69516;42.050;21.516;2023-07-31T10:14:59;4.45;;;2.65;;
80195;SDS011;69516;42.050;21.516;2023-07-31T10:17:26;3.92;;;2.28;;
80195;SDS011;69516;42.050;21.516;2023-07-31T10:19:53;4.40;;;2.75;;
80195;SDS011;69516;42.050;21.516;2023-07-31T10:22:20;6.28;;;4.18;;
80195;SDS011;69516;42.050;21.516;2023-07-31T10:24:47;6.53;;;4.97;;
80195;SDS011;69516;42.050;21.516;2023-07-31T10:27:14;7.85;;;4.45;;
80195;SDS011;69516;42.050;21.516;2023-07-31T10:29:41;6.40;;;4.80;;
80195;SDS011;69516;42.050;21.516;2023-07-31T10:32:08;7.78;;;5.07;;
80195;SDS011;69516;42.050;21.516;2023-07-31T10:34:36;6.75;;;4.30;;
80195;SDS011;69516;42.050;21.516;2023-07-31T10:37:23;6.15;;;4.60;;
80195;SDS011;69516;42.050;21.516;2023-07-31T10:39:56;6.50;;;4.88;;
80195;SDS011;69516;42.050;21.516;2023-07-31T10:42:44;6.90;;;5.40;;
80195;SDS011;69516;42.050;21.516;2023-07-31T10:45:12;7.20;;;5.38;;
80195;SDS011;69516;42.050;21.516;2023-07-31T10:47:39;7.20;;;5.63;;
80195;SDS011;69516;42.050;21.516;2023-07-31T10:50:26;8.32;;;5.45;;
80195;SDS011;69516;42.050;21.516;2023-07-31T10:52:52;7.40;;;5.30;;
80195;SDS011;69516;42.050;21.516;2023-07-31T10:57:46;7.50;;;5.68;;
80195;SDS011;69516;42.050;21.516;2023-07-31T11:02:39;10.43;;;7.65;;
80195;SDS011;69516;42.050;21.516;2023-07-31T11:05:06;6.50;;;5.18;;
80195;SDS011;69516;42.050;21.516;2023-07-31T11:07:48;7.18;;;5.10;;
80195;SDS011;69516;42.050;21.516;2023-07-31T11:10:18;6.38;;;4.80;;
80195;SDS011;69516;42.050;21.516;2023-07-31T11:12:47;7.00;;;5.53;;
80195;SDS011;69516;42.050;21.516;2023-07-31T11:15:13;7.70;;;6.00;;
80195;SDS011;69516;42.050;21.516;2023-07-31T11:17:39;7.40;;;5.63;;
80195;SDS011;69516;42.050;21.516;2023-07-31T11:20:06;6.93;;;5.28;;
80195;SDS011;69516;42.050;21.516;2023-07-31T11:22:34;7.30;;;5.70;;
80195;SDS011;69516;42.050;21.516;2023-07-31T11:25:02;7.18;;;5.65;;
80195;SDS011;69516;42.050;21.516;2023-07-31T11:30:01;6.85;;;5.53;;
80195;SDS011;69516;42.050;21.516;2023-07-31T11:32:27;6.70;;;5.20;;
80195;SDS011;69516;42.050;21.516;2023-07-31T11:34:54;7.57;;;5.75;;
80195;SDS011;69516;42.050;21.516;2023-07-31T11:37:20;7.65;;;6.18;;
80195;SDS011;69516;42.050;21.516;2023-07-31T11:40:01;6.90;;;5.65;;
80195;SDS011;69516;42.050;21.516;2023-07-31T11:42:28;8.10;;;6.57;;
80195;SDS011;69516;42.050;21.516;2023-07-31T11:44:54;8.02;;;6.15;;
80195;SDS011;69516;42.050;21.516;2023-07-31T11:47:20;7.60;;;5.75;;
80195;SDS011;69516;42.050;21.516;2023-07-31T11:49:46;7.18;;;5.43;;
80195;SDS011;69516;42.050;21.516;2023-07-31T11:52:13;8.20;;;6.28;;
80195;SDS011;69516;42.050;21.516;2023-07-31T11:54:40;8.23;;;5.82;;
80195;SDS011;69516;42.050;21.516;2023-07-31T11:57:06;9.55;;;6.38;;
80195;SDS011;69516;42.050;21.516;2023-07-31T11:59:32;10.05;;;6.28;;
80195;SDS011;69516;42.050;21.516;2023-07-31T12:01:59;7.60;;;5.93;;
80195;SDS011;69516;42.050;21.516;2023-07-31T12:04:25;8.73;;;6.30;;
80195;SDS011;69516;42.050;21.516;2023-07-31T12:06:52;8.35;;;6.53;;
80195;SDS011;69516;42.050;21.516;2023-07-31T12:09:19;10.05;;;6.43;;
80195;SDS011;69516;42.050;21.516;2023-07-31T12:11:46;8.65;;;7.03;;
80195;SDS011;69516;42.050;21.516;2023-07-31T12:14:22;7.93;;;6.30;;
80195;SDS011;69516;42.050;21.516;2023-07-31T12:16:56;8.32;;;6.45;;
80195;SDS011;69516;42.050;21.516;2023-07-31T12:19:22;8.55;;;6.63;;
80195;SDS011;69516;42.050;21.516;2023-07-31T12:21:49;9.63;;;6.50;;
80195;SDS011;69516;42.050;21.516;2023-07-31T12:24:17;8.07;;;6.35;;
80195;SDS011;69516;42.050;21.516;2023-07-31T12:26:45;8.43;;;6.55;;
80195;SDS011;69516;42.050;21.516;2023-07-31T12:29:14;8.93;;;6.97;;
80195;SDS011;69516;42.050;21.516;2023-07-31T12:31:43;6.88;;;5.05;;
80195;SDS011;69516;42.050;21.516;2023-07-31T12:34:16;7.43;;;5.25;;
80195;SDS011;69516;42.050;21.516;2023-07-31T12:36:43;7.00;;;5.05;;
80195;SDS011;69516;42.050;21.516;2023-07-31T12:39:09;7.15;;;4.70;;
80195;SDS011;69516;42.050;21.516;2023-07-31T12:41:35;6.50;;;4.95;;
80195;SDS011;69516;42.050;21.516;2023-07-31T12:44:02;6.60;;;5.20;;
80195;SDS011;69516;42.050;21.516;2023-07-31T12:46:28;6.88;;;4.60;;
80195;SDS011;69516;42.050;21.516;2023-07-31T12:48:54;6.18;;;3.92;;
80195;SDS011;69516;42.050;21.516;2023-07-31T12:51:21;7.30;;;4.32;;
80195;SDS011;69516;42.050;21.516;2023-07-31T12:53:47;6.25;;;4.55;;
80195;SDS011;69516;42.050;21.516;2023-07-31T12:56:13;6.07;;;4.47;;
80195;SDS011;69516;42.050;21.516;2023-07-31T12:58:39;5.57;;;3.78;;
80195;SDS011;69516;42.050;21.516;2023-07-31T13:01:05;6.22;;;4.13;;
80195;SDS011;69516;42.050;21.516;2023-07-31T13:03:31;5.75;;;3.70;;
80195;SDS011;69516;42.050;21.516;2023-07-31T13:05:57;5.65;;;4.05;;
80195;SDS011;69516;42.050;21.516;2023-07-31T13:08:23;5.53;;;4.10;;
80195;SDS011;69516;42.050;21.516;2023-07-31T13:10:50;5.93;;;3.42;;
80195;SDS011;69516;42.050;21.516;2023-07-31T13:13:16;5.70;;;3.78;;
80195;SDS011;69516;42.050;21.516;2023-07-31T13:15:43;5.30;;;3.17;;
80195;SDS011;69516;42.050;21.516;2023-07-31T13:18:10;4.63;;;2.97;;
80195;SDS011;69516;42.050;21.516;2023-07-31T13:20:36;4.20;;;2.40;;
80195;SDS011;69516;42.050;21.516;2023-07-31T13:23:02;5.00;;;3.03;;
80195;SDS011;69516;42.050;21.516;2023-07-31T13:25:28;4.30;;;2.58;;
80195;SDS011;69516;42.050;21.516;2023-07-31T13:27:54;4.70;;;2.60;;
80195;SDS011;69516;42.050;21.516;2023-07-31T13:30:20;4.70;;;2.40;;
80195;SDS011;69516;42.050;21.516;2023-07-31T13:32:47;4.63;;;2.63;;
80195;SDS011;69516;42.050;21.516;2023-07-31T13:35:13;5.47;;;2.80;;
80195;SDS011;69516;42.050;21.516;2023-07-31T13:37:39;4.78;;;2.97;;
80195;SDS011;69516;42.050;21.516;2023-07-31T13:40:05;4.80;;;2.97;;
80195;SDS011;69516;42.050;21.516;2023-07-31T13:42:32;4.50;;;2.92;;
80195;SDS011;69516;42.050;21.516;2023-07-31T13:44:58;4.53;;;2.80;;
80195;SDS011;69516;42.050;21.516;2023-07-31T13:47:25;5.28;;;3.05;;
80195;SDS011;69516;42.050;21.516;2023-07-31T13:49:51;4.78;;;3.10;;
80195;SDS011;69516;42.050;21.516;2023-07-31T13:52:17;4.97;;;2.97;;
80195;SDS011;69516;42.050;21.516;2023-07-31T13:54:43;4.53;;;2.85;;
80195;SDS011;69516;42.050;21.516;2023-07-31T13:57:09;5.38;;;2.83;;
80195;SDS011;69516;42.050;21.516;2023-07-31T13:59:36;4.03;;;2.22;;
80195;SDS011;69516;42.050;21.516;2023-07-31T14:02:02;4.68;;;2.47;;
80195;SDS011;69516;42.050;21.516;2023-07-31T14:04:28;5.68;;;2.95;;
80195;SDS011;69516;42.050;21.516;2023-07-31T14:06:55;5.00;;;2.65;;
80195;SDS011;69516;42.050;21.516;2023-07-31T14:09:21;4.93;;;3.08;;
80195;SDS011;69516;42.050;21.516;2023-07-31T14:11:48;4.60;;;2.80;;
80195;SDS011;69516;42.050;21.516;2023-07-31T14:14:14;5.03;;;3.00;;
80195;SDS011;69516;42.050;21.516;2023-07-31T14:16:40;4.95;;;3.33;;
80195;SDS011;69516;42.050;21.516;2023-07-31T14:19:06;5.30;;;3.42;;
80195;SDS011;69516;42.050;21.516;2023-07-31T14:21:35;6.43;;;4.40;;
80195;SDS011;69516;42.050;21.516;2023-07-31T14:24:01;5.68;;;4.20;;
80195;SDS011;69516;42.050;21.516;2023-07-31T14:26:27;5.60;;;4.13;;
80195;SDS011;69516;42.050;21.516;2023-07-31T14:28:53;5.63;;;4.38;;
80195;SDS011;69516;42.050;21.516;2023-07-31T14:31:20;6.97;;;4.10;;
80195;SDS011;69516;42.050;21.516;2023-07-31T14:33:46;5.20;;;3.33;;
80195;SDS011;69516;42.050;21.516;2023-07-31T14:36:12;6.78;;;4.13;;
80195;SDS011;69516;42.050;21.516;2023-07-31T14:38:38;5.50;;;3.72;;
80195;SDS011;69516;42.050;21.516;2023-07-31T14:41:04;5.10;;;3.78;;
80195;SDS011;69516;42.050;21.516;2023-07-31T14:43:30;5.82;;;4.00;;